createdAt,value
2023-09-09T00:02:24.067Z,176.43
2023-09-09T00:04:54.009Z,173.98
2023-09-09T00:07:25.914Z,173.82
2023-09-09T00:09:54.189Z,182.00
2023-09-09T00:12:23.822Z,171.52
2023-09-09T00:15:22.314Z,181.93
2023-09-09T00:17:50.576Z,188.98
2023-09-09T00:20:24.674Z,190.80
2023-09-09T00:22:55.434Z,189.77
2023-09-09T00:25:54.749Z,197.82
2023-09-09T00:28:37.971Z,190.93
2023-09-09T00:31:07.262Z,199.68
2023-09-09T00:33:46.804Z,203.68
2023-09-09T00:36:28.625Z,195.60
2023-09-09T00:39:43.033Z,190.55
2023-09-09T00:45:20.902Z,193.20
2023-09-09T00:48:35.470Z,195.32
2023-09-09T00:51:23.763Z,195.50
2023-09-09T00:56:48.050Z,197.43
2023-09-09T01:02:03.781Z,196.65
2023-09-09T01:04:35.053Z,203.88
2023-09-09T01:07:32.329Z,196.40
2023-09-09T01:10:07.194Z,198.13
2023-09-09T01:12:37.261Z,197.15
2023-09-09T01:15:17.462Z,201.60
2023-09-09T01:17:55.293Z,206.48
2023-09-09T01:20:41.726Z,216.07
2023-09-09T01:23:16.063Z,224.43
2023-09-09T01:25:44.285Z,215.75
2023-09-09T01:28:11.597Z,211.68
2023-09-09T01:30:58.956Z,215.95
2023-09-09T01:36:31.987Z,218.80
2023-09-09T01:43:12.691Z,228.88
2023-09-09T01:45:43.286Z,223.43
2023-09-09T01:48:32.018Z,229.75
2023-09-09T01:51:25.402Z,216.18
2023-09-09T02:00:30.155Z,225.25
2023-09-09T02:03:00.973Z,224.35
2023-09-09T02:05:31.030Z,213.82
2023-09-09T02:08:49.984Z,219.15
2023-09-09T02:11:40.066Z,230.40
2023-09-09T02:14:39.490Z,217.75
2023-09-09T02:17:19.215Z,222.25
2023-09-09T02:20:02.527Z,226.50
2023-09-09T02:22:44.821Z,224.57
2023-09-09T02:25:18.561Z,223.73
2023-09-09T02:27:49.446Z,223.95
2023-09-09T02:30:29.728Z,229.15
2023-09-09T02:33:16.463Z,232.82
2023-09-09T02:36:02.728Z,232.30
2023-09-09T02:38:36.775Z,224.65
2023-09-09T02:41:13.565Z,222.45
2023-09-09T02:46:57.933Z,223.60
2023-09-09T02:49:28.167Z,222.68
2023-09-09T02:52:07.130Z,216.38
2023-09-09T02:54:46.770Z,215.00
2023-09-09T02:57:19.913Z,211.13
2023-09-09T02:59:52.406Z,217.85
2023-09-09T03:02:23.901Z,204.80
2023-09-09T03:04:55.489Z,218.98
2023-09-09T03:07:26.472Z,219.98
2023-09-09T03:09:53.930Z,232.30
2023-09-09T03:12:22.329Z,250.00
2023-09-09T03:14:50.094Z,240.10
2023-09-09T03:17:18.556Z,317.92
2023-09-09T03:19:46.526Z,224.73
2023-09-09T03:22:13.874Z,218.70
2023-09-09T03:24:41.154Z,253.68
2023-09-09T03:27:08.505Z,317.27
2023-09-09T03:29:49.373Z,291.83
2023-09-09T03:32:19.417Z,328.70
2023-09-09T03:34:54.345Z,204.30
2023-09-09T03:37:48.871Z,172.18
2023-09-09T03:40:29.476Z,231.88
2023-09-09T03:43:17.720Z,210.88
2023-09-09T03:45:49.615Z,225.77
2023-09-09T03:48:50.899Z,172.57
2023-09-09T03:51:23.323Z,244.95
2023-09-09T03:54:18.124Z,186.77
2023-09-09T03:56:54.940Z,233.73
2023-09-09T03:59:59.025Z,285.15
2023-09-09T04:05:30.987Z,169.93
2023-09-09T04:07:59.565Z,154.15
2023-09-09T04:10:27.195Z,103.40
2023-09-09T04:12:54.549Z,164.20
2023-09-09T04:15:21.950Z,140.27
2023-09-09T04:17:49.352Z,264.77
2023-09-09T04:20:16.822Z,121.70
2023-09-09T04:22:44.238Z,150.13
2023-09-09T04:25:12.092Z,240.23
2023-09-09T04:27:39.450Z,224.88
2023-09-09T04:30:07.116Z,187.40
2023-09-09T04:32:35.909Z,161.18
2023-09-09T04:35:04.525Z,228.57
2023-09-09T04:37:33.754Z,205.40
2023-09-09T04:40:01.566Z,171.18
2023-09-09T04:42:29.135Z,154.38
2023-09-09T04:44:56.531Z,214.45
2023-09-09T04:47:23.787Z,183.13
2023-09-09T04:49:51.305Z,183.93
2023-09-09T04:52:18.607Z,201.55
2023-09-09T04:54:45.994Z,145.35
2023-09-09T04:57:13.786Z,169.60
2023-09-09T04:59:41.135Z,221.90
2023-09-09T05:02:08.567Z,188.23
2023-09-09T05:04:41.791Z,209.23
2023-09-09T05:07:23.493Z,199.05
2023-09-09T05:10:20.445Z,166.60
2023-09-09T05:12:49.075Z,155.60
2023-09-09T05:15:18.029Z,243.75
2023-09-09T05:20:35.475Z,205.30
2023-09-09T05:23:05.689Z,183.77
2023-09-09T05:25:45.524Z,204.63
2023-09-09T05:31:10.003Z,272.70
2023-09-09T05:33:39.956Z,175.73
2023-09-09T05:36:13.024Z,167.40
2023-09-09T05:38:41.631Z,159.75
2023-09-09T05:43:40.862Z,275.92
2023-09-09T05:46:20.757Z,233.38
2023-09-09T05:48:50.683Z,257.25
2023-09-09T05:51:28.820Z,228.50
2023-09-09T05:53:57.912Z,182.35
2023-09-09T05:56:27.257Z,210.50
2023-09-09T05:58:57.542Z,198.52
2023-09-09T06:01:27.537Z,186.63
2023-09-09T06:03:57.712Z,181.60
2023-09-09T06:09:10.206Z,142.13
2023-09-09T06:11:38.274Z,117.00
2023-09-09T06:14:05.580Z,127.28
2023-09-09T06:16:33.534Z,124.28
2023-09-09T06:19:01.316Z,147.80
2023-09-09T06:21:28.753Z,123.85
2023-09-09T06:23:56.680Z,112.25
2023-09-09T06:26:24.133Z,115.75
2023-09-09T06:28:51.545Z,105.68
2023-09-09T06:31:18.996Z,95.13
2023-09-09T06:33:46.655Z,91.57
2023-09-09T06:36:14.335Z,93.13
2023-09-09T06:38:43.093Z,97.22
2023-09-09T06:41:10.509Z,98.20
2023-09-09T06:43:38.419Z,97.95
2023-09-09T06:46:06.058Z,94.00
2023-09-09T06:48:33.387Z,93.57
2023-09-09T06:51:00.667Z,122.90
2023-09-09T06:53:28.123Z,105.65
2023-09-09T06:55:55.408Z,102.47
2023-09-09T06:58:22.903Z,105.80
2023-09-09T07:00:53.816Z,117.30
2023-09-09T07:03:21.589Z,106.97
2023-09-09T07:05:49.303Z,106.77
2023-09-09T07:08:16.765Z,109.43
2023-09-09T07:10:53.517Z,111.63
2023-09-09T07:13:22.780Z,114.97
2023-09-09T07:15:56.629Z,112.20
2023-09-09T07:18:24.233Z,112.13
2023-09-09T07:20:51.596Z,112.07
2023-09-09T07:23:19.663Z,118.57
2023-09-09T07:25:48.432Z,125.73
2023-09-09T07:30:43.239Z,121.20
2023-09-09T07:33:10.645Z,129.82
2023-09-09T07:35:38.179Z,137.07
2023-09-09T07:38:06.432Z,138.30
2023-09-09T07:40:34.044Z,146.55
2023-09-09T07:43:01.574Z,131.40
2023-09-09T07:45:29.265Z,145.45
2023-09-09T07:47:57.746Z,142.05
2023-09-09T07:50:25.249Z,144.13
2023-09-09T07:52:52.690Z,152.13
2023-09-09T07:55:20.018Z,155.35
2023-09-09T07:57:47.427Z,154.48
2023-09-09T08:00:14.959Z,125.43
2023-09-09T08:02:42.426Z,133.10
2023-09-09T08:05:09.904Z,138.90
2023-09-09T08:07:37.200Z,137.13
2023-09-09T08:10:04.753Z,130.68
2023-09-09T08:12:32.205Z,120.32
2023-09-09T08:15:06.695Z,110.28
2023-09-09T08:17:34.577Z,103.10
2023-09-09T08:20:04.293Z,93.90
2023-09-09T08:22:31.650Z,84.53
2023-09-09T08:24:58.988Z,79.72
2023-09-09T08:27:30.095Z,77.47
2023-09-09T08:32:52.827Z,75.45
2023-09-09T08:35:23.755Z,65.13
2023-09-09T08:38:01.989Z,66.32
2023-09-09T08:43:53.334Z,67.65
2023-09-09T08:49:56.898Z,50.05
2023-09-09T08:52:45.985Z,46.38
2023-09-09T08:55:41.598Z,43.92
2023-09-09T09:01:45.156Z,39.15
2023-09-09T09:04:19.394Z,40.08
2023-09-09T09:06:52.519Z,32.22
2023-09-09T09:09:45.958Z,29.08
2023-09-09T09:12:19.920Z,29.00
2023-09-09T09:14:48.537Z,30.15
2023-09-09T09:20:29.204Z,24.33
2023-09-09T09:23:04.227Z,21.75
2023-09-09T09:25:38.044Z,18.83
2023-09-09T09:28:08.754Z,20.13
2023-09-09T09:30:44.927Z,19.02
2023-09-09T09:33:17.053Z,22.35
2023-09-09T09:35:44.376Z,26.52
2023-09-09T09:38:16.995Z,24.33
2023-09-09T09:40:44.634Z,24.05
2023-09-09T09:43:20.193Z,24.17
2023-09-09T09:45:48.367Z,21.80
2023-09-09T09:48:28.498Z,22.50
2023-09-09T09:51:02.795Z,22.90
2023-09-09T09:53:31.068Z,23.90
2023-09-09T09:55:58.997Z,20.83
2023-09-09T09:58:28.603Z,22.38
2023-09-09T10:00:58.200Z,20.95
2023-09-09T10:03:27.517Z,16.73
2023-09-09T10:05:56.156Z,16.92
2023-09-09T10:08:38.272Z,15.15
2023-09-09T10:11:07.936Z,19.60
2023-09-09T10:13:38.133Z,17.55
2023-09-09T10:16:07.942Z,15.85
2023-09-09T10:18:36.990Z,16.70
2023-09-09T10:21:06.265Z,17.13
2023-09-09T10:23:34.136Z,16.75
2023-09-09T10:26:01.620Z,19.13
2023-09-09T10:28:31.916Z,13.77
2023-09-09T10:31:38.321Z,15.45
2023-09-09T10:34:21.825Z,13.13
2023-09-09T10:37:01.748Z,15.27
2023-09-09T10:39:30.204Z,16.05
2023-09-09T10:42:02.889Z,18.90
2023-09-09T10:44:30.330Z,17.55
2023-09-09T10:47:01.285Z,14.70
2023-09-09T10:50:06.979Z,19.48
2023-09-09T10:59:02.363Z,15.30
2023-09-09T10:59:20.159Z,13.57
2023-09-09T11:02:35.512Z,14.77
2023-09-09T11:05:18.357Z,16.50
2023-09-09T11:10:58.957Z,14.75
2023-09-09T11:14:03.636Z,13.00
2023-09-09T11:17:06.287Z,17.25
2023-09-09T11:23:06.222Z,14.48
2023-09-09T11:25:48.512Z,13.18
2023-09-09T11:28:31.289Z,12.68
2023-09-09T11:31:06.764Z,11.57
2023-09-09T11:34:06.604Z,14.77
2023-09-09T11:36:55.453Z,17.42
2023-09-09T11:39:40.104Z,11.88
2023-09-09T11:42:13.495Z,13.93
2023-09-09T11:45:25.593Z,10.20
2023-09-09T11:48:01.992Z,17.25
2023-09-09T11:51:33.004Z,10.90
2023-09-09T11:55:11.676Z,12.30
2023-09-09T11:58:00.170Z,11.67
2023-09-09T12:01:07.974Z,12.98
2023-09-09T12:10:47.706Z,12.70
2023-09-09T12:13:50.646Z,13.80
2023-09-09T12:16:51.798Z,16.40
2023-09-09T12:19:48.511Z,13.82
2023-09-09T12:22:57.014Z,14.73
2023-09-09T12:28:27.125Z,11.35
2023-09-09T12:34:21.884Z,17.70
2023-09-09T12:37:23.952Z,11.60
2023-09-09T12:40:11.370Z,11.43
2023-09-09T12:43:05.583Z,12.30
2023-09-09T12:46:20.600Z,11.25
2023-09-09T12:52:11.481Z,12.05
2023-09-09T12:54:40.824Z,9.95
2023-09-09T13:00:35.031Z,13.27
2023-09-09T13:03:26.235Z,12.85
2023-09-09T13:06:06.898Z,14.00
2023-09-09T13:08:46.246Z,11.50
2023-09-09T13:11:31.430Z,10.23
2023-09-09T13:16:54.461Z,12.52
2023-09-09T13:22:28.557Z,16.87
2023-09-09T13:31:42.093Z,14.02
2023-09-09T13:34:19.643Z,42.35
2023-09-09T13:37:02.372Z,20.33
2023-09-09T13:40:02.420Z,14.32
2023-09-09T13:43:05.687Z,11.07
2023-09-09T13:45:47.792Z,11.52
2023-09-09T13:49:16.440Z,17.90
2023-09-09T13:52:24.418Z,11.85
2023-09-09T13:55:20.362Z,17.88
2023-09-09T13:58:03.794Z,11.60
2023-09-09T14:00:44.679Z,12.75
2023-09-09T14:03:32.647Z,14.38
2023-09-09T14:06:14.650Z,14.93
2023-09-09T14:12:54.971Z,14.15
2023-09-09T14:15:47.127Z,11.93
2023-09-09T14:19:00.243Z,16.40
2023-09-09T14:21:33.546Z,19.65
2023-09-09T14:27:36.048Z,18.23
2023-09-09T14:30:47.688Z,15.00
2023-09-09T14:42:52.508Z,15.15
2023-09-09T14:45:20.707Z,14.05
2023-09-09T14:47:49.844Z,15.82
2023-09-09T14:50:19.659Z,14.13
2023-09-09T14:52:49.040Z,13.57
2023-09-09T14:55:18.236Z,16.80
2023-09-09T14:58:02.084Z,15.73
2023-09-09T15:01:14.215Z,15.02
2023-09-09T15:03:34.055Z,15.85
2023-09-09T15:06:03.670Z,16.27
2023-09-09T15:08:30.904Z,16.30
2023-09-09T15:10:58.890Z,15.68
2023-09-09T15:13:28.495Z,15.43
2023-09-09T15:16:30.369Z,15.98
2023-09-09T15:18:59.971Z,14.25
2023-09-09T15:21:29.203Z,21.45
2023-09-09T15:23:57.535Z,16.65
2023-09-09T15:26:25.334Z,15.02
2023-09-09T15:31:23.951Z,15.05
2023-09-09T15:33:51.634Z,13.93
2023-09-09T15:36:20.614Z,16.13
2023-09-09T15:38:55.200Z,14.95
2023-09-09T15:41:25.563Z,13.95
2023-09-09T15:43:55.261Z,18.30
2023-09-09T15:46:25.993Z,16.42
2023-09-09T15:48:57.169Z,16.77
2023-09-09T15:51:29.436Z,15.57
2023-09-09T15:53:59.319Z,14.27
2023-09-09T15:56:28.422Z,18.73
2023-09-09T15:58:58.664Z,14.20
2023-09-09T16:01:29.369Z,16.35
2023-09-09T16:03:57.964Z,18.63
2023-09-09T16:06:25.576Z,15.77
2023-09-09T16:11:56.257Z,13.13
2023-09-09T16:14:27.005Z,16.73
2023-09-09T16:16:58.388Z,15.13
2023-09-09T16:19:29.165Z,17.05
2023-09-09T16:21:56.821Z,15.63
2023-09-09T16:24:26.048Z,19.43
2023-09-09T16:26:58.364Z,16.88
2023-09-09T16:29:27.982Z,17.08
2023-09-09T16:31:57.936Z,16.60
2023-09-09T16:34:27.366Z,16.13
2023-09-09T16:36:57.247Z,14.82
2023-09-09T16:39:27.191Z,17.40
2023-09-09T16:41:58.470Z,13.35
2023-09-09T16:44:28.288Z,17.20
2023-09-09T16:47:06.732Z,17.52
2023-09-09T16:49:42.366Z,16.70
2023-09-09T16:52:11.604Z,19.13
2023-09-09T16:54:40.521Z,18.02
2023-09-09T16:57:10.920Z,18.33
2023-09-09T16:59:50.273Z,19.05
2023-09-09T17:02:21.709Z,22.08
2023-09-09T17:04:51.601Z,16.95
2023-09-09T17:07:22.017Z,15.80
2023-09-09T17:09:52.401Z,14.65
2023-09-09T17:12:21.676Z,15.30
2023-09-09T17:14:49.364Z,19.83
2023-09-09T17:17:17.346Z,16.58
2023-09-09T17:19:46.738Z,15.57
2023-09-09T17:22:15.993Z,26.83
2023-09-09T17:24:45.489Z,24.40
2023-09-09T17:27:13.567Z,26.75
2023-09-09T17:29:46.916Z,21.95
2023-09-09T17:32:18.663Z,31.13
2023-09-09T17:35:00.997Z,27.30
2023-09-09T17:37:41.643Z,26.42
2023-09-09T17:40:12.571Z,31.10
2023-09-09T17:42:43.077Z,30.17
2023-09-09T17:45:23.163Z,32.60
2023-09-09T17:47:51.163Z,28.38
2023-09-09T17:50:19.888Z,29.35
2023-09-09T17:52:49.723Z,23.70
2023-09-09T17:55:18.405Z,23.42
2023-09-09T17:57:45.702Z,19.95
2023-09-09T18:00:14.892Z,27.52
2023-09-09T18:02:46.915Z,23.05
2023-09-09T18:05:17.544Z,19.17
2023-09-09T18:07:47.963Z,23.10
2023-09-09T18:10:18.007Z,20.60
2023-09-09T18:12:46.445Z,19.70
2023-09-09T18:15:13.741Z,23.37
2023-09-09T18:17:41.177Z,18.70
2023-09-09T18:20:09.859Z,20.77
2023-09-09T18:25:06.303Z,17.30
2023-09-09T18:27:34.176Z,17.88
2023-09-09T18:30:01.608Z,17.77
2023-09-09T18:32:29.069Z,15.82
2023-09-09T18:35:03.784Z,18.58
2023-09-09T18:37:35.278Z,16.20
2023-09-09T18:40:08.417Z,18.20
2023-09-09T18:42:36.210Z,19.75
2023-09-09T18:45:05.359Z,19.48
2023-09-09T18:47:33.868Z,19.77
2023-09-09T18:50:01.699Z,21.67
2023-09-09T18:52:29.631Z,19.35
2023-09-09T18:54:59.074Z,23.02
2023-09-09T18:57:26.971Z,22.33
2023-09-09T18:59:56.144Z,21.88
2023-09-09T19:02:25.108Z,22.52
2023-09-09T19:04:54.558Z,27.63
2023-09-09T19:07:33.304Z,18.80
2023-09-09T19:10:04.935Z,24.58
2023-09-09T19:12:33.278Z,25.45
2023-09-09T19:17:31.710Z,28.85
2023-09-09T19:20:02.654Z,26.13
2023-09-09T19:22:43.867Z,21.88
2023-09-09T19:25:16.787Z,26.55
2023-09-09T19:27:57.585Z,22.88
2023-09-09T19:30:27.365Z,23.85
2023-09-09T19:32:57.698Z,23.17
2023-09-09T19:35:26.551Z,21.95
2023-09-09T19:37:58.827Z,21.98
2023-09-09T19:40:27.588Z,25.20
2023-09-09T19:42:56.363Z,22.08
2023-09-09T19:45:24.276Z,31.23
2023-09-09T19:47:52.584Z,46.97
2023-09-09T19:50:20.007Z,39.17
2023-09-09T19:52:49.502Z,35.65
2023-09-09T19:55:18.870Z,37.85
2023-09-09T19:57:46.358Z,34.05
2023-09-09T20:00:15.271Z,35.72
2023-09-09T20:02:45.364Z,31.67
2023-09-09T20:05:13.173Z,34.97
2023-09-09T20:07:42.764Z,36.35
2023-09-09T20:10:14.399Z,36.08
2023-09-09T20:12:44.616Z,34.95
2023-09-09T20:15:33.434Z,36.55
2023-09-09T20:18:04.283Z,34.72
2023-09-09T20:20:35.985Z,36.25
2023-09-09T20:23:06.313Z,36.10
2023-09-09T20:28:20.937Z,33.25
2023-09-09T20:30:48.463Z,32.90
2023-09-09T20:33:16.223Z,33.30
2023-09-09T20:35:47.350Z,34.05
2023-09-09T20:38:16.104Z,32.65
2023-09-09T20:40:44.624Z,33.13
2023-09-09T20:43:15.520Z,33.88
2023-09-09T20:45:47.695Z,35.17
2023-09-09T20:48:34.618Z,33.47
2023-09-09T20:51:04.434Z,34.25
2023-09-09T20:53:38.008Z,36.25
2023-09-09T20:56:14.475Z,35.42
2023-09-09T20:58:48.399Z,34.83
2023-09-09T21:01:27.849Z,33.40
2023-09-09T21:03:57.963Z,34.67
2023-09-09T21:06:26.518Z,33.67
2023-09-09T21:08:56.158Z,35.60
2023-09-09T21:11:27.655Z,34.20
2023-09-09T21:13:57.132Z,36.28
2023-09-09T21:16:25.548Z,35.10
2023-09-09T21:18:55.036Z,33.70
2023-09-09T21:21:25.643Z,33.35
2023-09-09T21:23:59.232Z,33.35
2023-09-09T21:26:29.437Z,34.35
2023-09-09T21:28:58.800Z,30.80
2023-09-09T21:31:31.986Z,32.13
2023-09-09T21:34:12.224Z,32.92
2023-09-09T21:37:02.162Z,32.92
2023-09-09T21:39:34.181Z,34.60
2023-09-09T21:42:05.321Z,31.67
2023-09-09T21:44:46.829Z,33.38
2023-09-09T21:47:19.944Z,34.80
2023-09-09T21:49:55.522Z,31.48
2023-09-09T21:52:25.827Z,30.90
2023-09-09T21:54:54.115Z,29.88
2023-09-09T21:57:23.991Z,30.70
2023-09-09T21:59:57.273Z,28.40
2023-09-09T22:02:27.631Z,29.45
2023-09-09T22:04:57.527Z,29.63
2023-09-09T22:07:41.685Z,30.80
2023-09-09T22:10:11.326Z,29.90
2023-09-09T22:12:49.690Z,31.52
2023-09-09T22:15:17.863Z,30.77
2023-09-09T22:17:46.440Z,33.05
2023-09-09T22:20:15.824Z,34.55
2023-09-09T22:22:43.560Z,33.58
2023-09-09T22:25:12.562Z,30.10
2023-09-09T22:27:40.603Z,31.15
2023-09-09T22:30:08.537Z,31.90
2023-09-09T22:32:36.093Z,32.70
2023-09-09T22:35:05.814Z,31.98
2023-09-09T22:37:36.077Z,32.17
2023-09-09T22:40:11.630Z,31.42
2023-09-09T22:42:40.516Z,30.73
2023-09-09T22:45:08.842Z,32.90
2023-09-09T22:47:36.180Z,31.27
2023-09-09T22:50:04.827Z,32.08
2023-09-09T22:52:32.364Z,31.95
2023-09-09T22:55:02.407Z,33.60
2023-09-09T22:57:31.918Z,30.10
2023-09-09T23:00:03.898Z,30.75
2023-09-09T23:02:33.908Z,32.72
2023-09-09T23:05:18.780Z,32.75
2023-09-09T23:07:59.236Z,31.83
2023-09-09T23:10:47.789Z,33.13
2023-09-09T23:13:22.352Z,34.80
2023-09-09T23:22:41.240Z,34.67
2023-09-09T23:25:10.194Z,35.97
2023-09-09T23:30:05.886Z,36.20
2023-09-09T23:32:33.995Z,35.72
2023-09-09T23:35:05.276Z,33.30
2023-09-09T23:37:38.649Z,35.42
2023-09-09T23:40:46.479Z,35.88
2023-09-09T23:43:27.620Z,34.83
2023-09-09T23:45:58.506Z,37.25
2023-09-09T23:48:29.148Z,36.42
2023-09-09T23:51:12.271Z,36.92
2023-09-09T23:53:42.389Z,35.85
2023-09-09T23:56:14.759Z,37.05
2023-09-09T23:58:50.858Z,39.38
